Montrose Regional Airport
KMTJ : rendu visible

Aérodrome :











RETROUVEZ-NOUS SUR...

 
LOGIN :

S'inscrire | Disclaimer

   EN    FR    IT 

 









Légende :    VFR   VFR Marginal   IFR   IFR Intensif   IFR Très Intensif
Visi : 
Plafond : 
>= 8 km
>= 3000ft
5 à 8 km
1000 à 3000 ft
1500m à 5 km
500 à 1000 ft
800 à 1500m
200 à 500 ft
< 800m
< 200 ft
Symboles :   Orages  Brouillard  Fortes neiges  Fortes précipitations  Vent > 20 kt






- Altitude de l'aérodrome : 5759 ft


KMTJ - Montrose Regional

DERNIER METAR :
  • 162053Z AUTO 33006KT 3SM HZ CLR 14/M06 A3013 RMK AO2 SLP173 T01441056 56019 $

METARs EXPIRÉS :
  • 161953Z AUTO VRB03KT 10SM CLR 14/M06 A3015 RMK AO2 SLP179 T01441056 $
  • 161853Z AUTO 00000KT 10SM CLR 13/M06 A3019 RMK AO2 SLP196 T01281056 $

TAF KMTJ
Valide du 16 à 18h jusqu'au 17 à 18h UTC


161730Z 1618/1718 00000KT P6SM FEW250
FM161900 34008KT P6SM SKC
FM170200 15005KT P6SM SKC
FM171430 VRB03KT P6SM SKC



MET'MAP, la Météo Aéronautique d'un coup d'oeil ! - Copyright ORBIFLY Décembre 2007 - Disclaimer

ORBIFLY MET'MAP TEAM :

Programmation & Développement : Alexandra Zaïnal
Conception & Développement : Baudouin d'Aumeries
Co-Programmation & Développement : Marc-Olivier Méhu
Soutien technique & logistique : Manuel Goepfert

Contact : metmap@orbifly.com




SOURCES & CREDITS :

   NOAA       Earth
Advisory